createdAt,value
2023-01-17T00:02:13.511Z,-0.20
2023-01-17T00:04:59.232Z,-0.20
2023-01-17T00:07:45.491Z,-0.19
2023-01-17T00:10:17.437Z,-0.19
2023-01-17T00:12:48.875Z,-0.17
2023-01-17T00:15:16.899Z,-0.17
2023-01-17T00:17:44.355Z,-0.16
2023-01-17T00:20:33.598Z,-0.14
2023-01-17T00:23:19.255Z,-0.13
2023-01-17T00:26:04.684Z,-0.12
2023-01-17T00:28:33.807Z,-0.09
2023-01-17T00:31:01.103Z,-0.08
2023-01-17T00:33:28.347Z,-0.08
2023-01-17T00:35:56.468Z,-0.07
2023-01-17T00:38:25.351Z,-0.06
2023-01-17T00:40:52.546Z,-0.05
2023-01-17T00:43:40.279Z,-0.05
2023-01-17T00:46:26.553Z,-0.05
2023-01-17T00:49:12.607Z,-0.04
2023-01-17T00:51:58.234Z,-0.04
2023-01-17T00:54:43.937Z,-0.04
2023-01-17T00:57:29.851Z,-0.06
2023-01-17T01:00:15.534Z,-0.07
2023-01-17T01:03:01.276Z,-0.08
2023-01-17T01:05:47.028Z,-0.08
2023-01-17T04:19:29.118Z,-1.43
2023-01-17T04:21:56.311Z,-1.39
2023-01-17T04:24:23.538Z,-1.42
2023-01-17T04:26:50.717Z,-1.44
2023-01-17T04:29:17.844Z,-1.47
2023-01-17T04:31:45.017Z,-1.48
2023-01-17T04:34:12.115Z,-1.48
2023-01-17T04:36:39.289Z,-1.48
2023-01-17T04:39:06.856Z,-1.47
2023-01-17T04:41:34.075Z,-1.46
2023-01-17T04:44:02.247Z,-1.45
2023-01-17T04:46:29.433Z,-1.42
2023-01-17T04:48:56.568Z,-1.38
2023-01-17T04:51:23.704Z,-1.36
2023-01-17T04:53:50.871Z,-1.34
2023-01-17T04:56:17.995Z,-1.32
2023-01-17T04:58:45.105Z,-1.32
2023-01-17T05:01:12.326Z,-1.33
2023-01-17T05:03:39.542Z,-1.32
2023-01-17T05:06:06.596Z,-1.32
2023-01-17T05:08:33.938Z,-1.31
2023-01-17T05:11:01.029Z,-1.32
2023-01-17T05:13:28.110Z,-1.31
2023-01-17T05:15:58.046Z,-1.27
2023-01-17T05:18:25.429Z,-1.22
2023-01-17T05:20:52.635Z,-1.18
2023-01-17T05:23:19.726Z,-1.15
2023-01-17T05:25:46.805Z,-1.14
2023-01-17T05:28:14.038Z,-1.11
2023-01-17T05:30:41.303Z,-1.07
2023-01-17T05:33:10.406Z,-1.02
2023-01-17T05:35:37.640Z,-0.98
2023-01-17T05:38:04.824Z,-0.95
2023-01-17T05:40:32.457Z,-0.93
2023-01-17T05:42:59.893Z,-0.92
2023-01-17T05:45:28.333Z,-0.95
2023-01-17T05:47:55.808Z,-0.98
2023-01-17T05:50:27.920Z,-1.02
2023-01-17T05:52:59.209Z,-1.03
2023-01-17T05:55:27.293Z,-1.01
2023-01-17T05:57:54.845Z,-0.98
2023-01-17T06:00:22.572Z,-0.94
2023-01-17T06:02:49.919Z,-0.89
2023-01-17T06:05:17.354Z,-0.83
2023-01-17T06:07:45.877Z,-0.77
2023-01-17T06:10:14.688Z,-0.73
2023-01-17T06:12:42.785Z,-0.70
2023-01-17T06:15:10.543Z,-0.69
2023-01-17T06:17:37.662Z,-0.67
2023-01-17T06:20:05.603Z,-0.65
2023-01-17T06:22:33.160Z,-0.65
2023-01-17T06:25:00.278Z,-0.65
2023-01-17T06:27:27.437Z,-0.65
2023-01-17T06:29:54.659Z,-0.64
2023-01-17T06:32:21.865Z,-0.64
2023-01-17T06:34:49.068Z,-0.64
2023-01-17T06:37:16.272Z,-0.66
2023-01-17T06:39:43.537Z,-0.66
2023-01-17T06:42:10.804Z,-0.64
2023-01-17T06:44:37.923Z,-0.60
2023-01-17T06:47:05.047Z,-0.53
2023-01-17T06:49:32.306Z,-0.44
2023-01-17T06:51:59.469Z,-0.36
2023-01-17T06:54:27.316Z,-0.29
2023-01-17T06:56:54.495Z,-0.22
2023-01-17T06:59:21.559Z,-0.14
2023-01-17T07:01:48.842Z,-0.06
2023-01-17T07:04:16.025Z,0.04
2023-01-17T07:06:43.159Z,0.14
2023-01-17T07:09:10.311Z,0.22
2023-01-17T07:11:37.409Z,0.27
2023-01-17T07:14:04.586Z,0.30
2023-01-17T07:16:31.772Z,0.35
2023-01-17T07:18:58.967Z,0.37
2023-01-17T07:21:26.116Z,0.41
2023-01-17T07:23:53.303Z,0.44
2023-01-17T07:26:20.654Z,0.50
2023-01-17T07:28:47.807Z,0.55
2023-01-17T07:31:14.975Z,0.61
2023-01-17T07:33:42.273Z,0.67
2023-01-17T07:36:09.979Z,0.71
2023-01-17T07:38:37.115Z,0.77
2023-01-17T07:41:04.565Z,0.81
2023-01-17T07:43:31.785Z,0.82
2023-01-17T07:46:01.357Z,0.84
2023-01-17T07:48:29.322Z,0.88
2023-01-17T07:50:57.138Z,0.96
2023-01-17T07:53:28.902Z,1.05
2023-01-17T07:55:56.150Z,1.14
2023-01-17T07:58:23.380Z,1.24
2023-01-17T08:00:50.782Z,1.35
2023-01-17T08:03:18.155Z,1.45
2023-01-17T08:05:53.517Z,1.55
2023-01-17T08:08:20.717Z,1.66
2023-01-17T08:10:47.762Z,1.77
2023-01-17T08:13:15.049Z,1.86
2023-01-17T08:15:42.283Z,1.95
2023-01-17T08:18:09.510Z,2.03
2023-01-17T08:20:36.573Z,2.12
2023-01-17T08:23:03.673Z,2.21
2023-01-17T08:25:30.723Z,2.32
2023-01-17T08:27:58.412Z,2.42
2023-01-17T08:30:25.893Z,2.51
2023-01-17T08:32:53.199Z,2.59
2023-01-17T08:35:20.791Z,2.65
2023-01-17T08:37:48.646Z,2.72
2023-01-17T08:40:19.882Z,2.78
2023-01-17T08:42:57.150Z,2.85
2023-01-17T08:45:24.413Z,2.93
2023-01-17T08:47:51.819Z,3.01
2023-01-17T08:50:21.718Z,3.09
2023-01-17T08:52:49.098Z,3.16
2023-01-17T08:55:16.450Z,3.22
2023-01-17T08:57:43.460Z,3.27
2023-01-17T09:00:11.120Z,3.32
2023-01-17T09:02:38.160Z,3.37
2023-01-17T12:49:16.592Z,5.55
2023-01-17T12:51:43.794Z,5.45
2023-01-17T12:54:24.623Z,5.35
2023-01-17T12:56:56.821Z,5.25
2023-01-17T12:59:35.520Z,5.17
2023-01-17T13:02:02.822Z,5.10
2023-01-17T13:04:32.311Z,5.05
2023-01-17T13:06:59.390Z,5.02
2023-01-17T13:09:29.944Z,4.98
2023-01-17T13:12:06.487Z,4.95
2023-01-17T13:14:33.505Z,4.92
2023-01-17T13:17:19.485Z,4.89
2023-01-17T13:20:14.531Z,4.85
2023-01-17T13:22:41.957Z,4.82
2023-01-17T13:25:31.014Z,4.80
2023-01-17T13:28:18.859Z,4.78
2023-01-17T13:31:14.041Z,4.78
2023-01-17T13:34:10.980Z,4.76
2023-01-17T13:36:59.242Z,4.75
2023-01-17T13:39:37.564Z,4.73
2023-01-17T13:42:12.352Z,4.71
2023-01-17T13:44:39.469Z,4.68
2023-01-17T13:47:32.175Z,4.67
2023-01-17T13:49:59.586Z,4.63
2023-01-17T13:52:26.599Z,4.61
2023-01-17T13:54:58.523Z,4.60
2023-01-17T13:57:27.865Z,4.60
2023-01-17T13:59:57.170Z,4.59
2023-01-17T14:02:33.470Z,4.58
2023-01-17T14:05:16.393Z,4.59
2023-01-17T14:08:12.775Z,4.59
2023-01-17T14:10:52.570Z,4.59
2023-01-17T14:13:34.207Z,4.60
2023-01-17T14:16:02.009Z,4.60
2023-01-17T14:18:41.869Z,4.59
2023-01-17T14:21:32.493Z,4.59
2023-01-17T14:24:04.277Z,4.57
2023-01-17T14:26:38.352Z,4.57
2023-01-17T14:29:42.810Z,4.56
2023-01-17T14:32:11.996Z,4.55
2023-01-17T14:34:39.298Z,4.55
2023-01-17T14:37:38.854Z,4.56
2023-01-17T14:40:19.939Z,4.56
2023-01-17T14:42:48.502Z,4.57
2023-01-17T14:45:27.939Z,4.59
2023-01-17T14:47:55.158Z,4.60
2023-01-17T14:50:23.596Z,4.61
2023-01-17T14:53:30.807Z,4.60
2023-01-17T14:56:14.986Z,4.61
2023-01-17T14:58:42.447Z,4.61
2023-01-17T15:01:14.260Z,4.62
2023-01-17T15:03:51.510Z,4.62
2023-01-17T15:06:32.245Z,4.63
2023-01-17T15:09:03.481Z,4.63
2023-01-17T15:11:31.751Z,4.63
2023-01-17T15:13:59.598Z,4.63
2023-01-17T15:16:28.549Z,4.64
2023-01-17T15:18:56.126Z,4.63
2023-01-17T15:21:25.128Z,4.61
2023-01-17T15:23:54.913Z,4.61
2023-01-17T15:26:24.000Z,4.59
2023-01-17T15:28:51.950Z,4.58
2023-01-17T15:31:40.237Z,4.58
2023-01-17T15:34:08.235Z,4.59
2023-01-17T15:36:35.216Z,4.59
2023-01-17T15:39:04.950Z,4.59
2023-01-17T15:41:35.040Z,4.60
2023-01-17T15:44:02.544Z,4.59
2023-01-17T15:46:31.895Z,4.58
2023-01-17T15:49:07.769Z,4.58
2023-01-17T15:51:39.100Z,4.58
2023-01-17T15:54:25.448Z,4.58
2023-01-17T15:57:05.840Z,4.58
2023-01-17T16:00:01.829Z,4.59
2023-01-17T16:02:35.338Z,4.60
2023-01-17T16:05:05.274Z,4.61
2023-01-17T16:07:35.819Z,4.63
2023-01-17T16:10:15.640Z,4.63
2023-01-17T16:12:42.992Z,4.64
2023-01-17T16:15:13.292Z,4.66
2023-01-17T16:17:40.909Z,4.67
2023-01-17T16:20:12.222Z,4.67
2023-01-17T16:22:39.269Z,4.68
2023-01-17T16:25:16.321Z,4.69
2023-01-17T16:27:43.599Z,4.70
2023-01-17T16:30:12.045Z,4.73
2023-01-17T16:32:39.073Z,4.75
2023-01-17T16:35:07.407Z,4.77
2023-01-17T16:37:34.491Z,4.79
2023-01-17T16:40:01.691Z,4.82
2023-01-17T16:42:28.723Z,4.83
2023-01-17T16:44:55.874Z,4.84
2023-01-17T16:47:22.999Z,4.86
2023-01-17T16:49:50.170Z,4.87
2023-01-17T16:52:17.270Z,4.90
2023-01-17T16:54:44.219Z,4.92
2023-01-17T16:57:11.229Z,4.93
2023-01-17T16:59:50.195Z,4.95
2023-01-17T17:02:18.815Z,4.95
2023-01-17T17:04:45.906Z,4.94
2023-01-17T17:07:13.000Z,4.91
2023-01-17T17:09:40.025Z,4.88
2023-01-17T17:12:07.223Z,4.84
2023-01-17T17:14:34.295Z,4.82
2023-01-17T17:17:01.408Z,4.79
2023-01-17T17:19:28.503Z,4.76
2023-01-17T17:21:58.292Z,4.72
2023-01-17T17:24:25.793Z,4.68
2023-01-17T17:26:52.843Z,4.67
2023-01-17T17:29:20.285Z,4.66
2023-01-17T17:31:47.394Z,4.64
2023-01-17T17:34:14.790Z,4.62
2023-01-17T17:36:42.117Z,4.61
2023-01-17T17:39:11.827Z,4.60
2023-01-17T17:41:41.572Z,4.60
2023-01-17T17:44:08.853Z,4.58
2023-01-17T17:46:37.393Z,4.56
2023-01-17T17:49:05.965Z,4.54
2023-01-17T17:51:34.669Z,4.53
2023-01-17T17:54:03.350Z,4.51
2023-01-17T17:56:30.991Z,4.47
2023-01-17T17:58:58.745Z,4.43
2023-01-17T18:01:26.047Z,4.40
2023-01-17T18:03:54.541Z,4.36
2023-01-17T18:06:21.860Z,4.33
2023-01-17T18:08:49.006Z,4.30
2023-01-17T18:11:21.420Z,4.27
2023-01-17T18:13:50.531Z,4.23
2023-01-17T18:16:20.020Z,4.20
2023-01-17T18:18:49.045Z,4.18
2023-01-17T18:21:17.884Z,4.17
2023-01-17T18:23:45.124Z,4.17
2023-01-17T18:26:23.517Z,4.16
2023-01-17T18:28:51.895Z,4.15
2023-01-17T18:31:18.941Z,4.14
2023-01-17T18:33:46.077Z,4.14
2023-01-17T18:36:13.789Z,4.13
2023-01-17T18:38:46.563Z,4.13
2023-01-17T18:41:15.882Z,4.11
2023-01-17T18:43:43.038Z,4.11
2023-01-17T18:46:10.796Z,4.11
2023-01-17T18:48:38.347Z,4.12
2023-01-17T18:51:07.118Z,4.12
2023-01-17T18:53:34.994Z,4.12
2023-01-17T18:56:02.861Z,4.13
2023-01-17T18:58:31.338Z,4.13
2023-01-17T19:01:14.762Z,4.14
2023-01-17T19:03:42.979Z,4.15
2023-01-17T19:06:11.335Z,4.16
2023-01-17T19:08:38.768Z,4.18
2023-01-17T22:31:56.617Z,4.65
2023-01-17T22:34:24.053Z,4.73
2023-01-17T22:36:51.126Z,4.74
2023-01-17T22:39:18.184Z,4.76
2023-01-17T22:41:45.396Z,4.77
2023-01-17T22:44:12.625Z,4.79
2023-01-17T22:46:41.557Z,4.82
2023-01-17T22:49:09.422Z,4.84
2023-01-17T22:51:36.507Z,4.85
2023-01-17T22:54:03.674Z,4.87
2023-01-17T22:56:32.078Z,4.90
2023-01-17T22:59:00.977Z,4.93
2023-01-17T23:01:32.347Z,4.94
2023-01-17T23:04:00.805Z,4.93
2023-01-17T23:06:32.622Z,4.92
2023-01-17T23:09:02.630Z,4.92
2023-01-17T23:11:43.843Z,4.93
2023-01-17T23:14:27.120Z,4.94
2023-01-17T23:17:20.073Z,4.96
2023-01-17T23:19:52.168Z,4.98
2023-01-17T23:22:27.143Z,5.00
2023-01-17T23:24:55.199Z,5.00
2023-01-17T23:27:45.133Z,5.02
2023-01-17T23:30:15.275Z,5.05
2023-01-17T23:32:53.350Z,5.06
2023-01-17T23:35:22.056Z,5.08
2023-01-17T23:38:07.835Z,5.10
2023-01-17T23:40:35.905Z,5.12
2023-01-17T23:43:21.609Z,5.15
2023-01-17T23:45:49.130Z,5.15
2023-01-17T23:48:16.208Z,5.16
2023-01-17T23:50:44.847Z,5.15
2023-01-17T23:53:16.167Z,5.17
2023-01-17T23:55:43.676Z,5.16
2023-01-17T23:58:11.286Z,5.17
